createdAt,value
2019-03-22T00:01:22.056Z,879.37
2019-03-22T00:03:52.148Z,117.15
2019-03-22T00:06:22.129Z,288.25
2019-03-22T00:08:52.078Z,222.60
2019-03-22T00:11:22.045Z,156.97
2019-03-22T00:13:52.545Z,138.30
2019-03-22T00:16:22.650Z,97.50
2019-03-22T00:18:52.937Z,87.30
2019-03-22T00:21:22.962Z,90.05
2019-03-22T00:23:53.193Z,86.78
2019-03-22T00:26:23.334Z,88.17
2019-03-22T00:28:54.343Z,84.22
2019-03-22T00:31:24.592Z,85.75
2019-03-22T00:33:54.698Z,95.38
2019-03-22T00:36:24.961Z,111.28
2019-03-22T00:38:55.144Z,150.57
2019-03-22T00:41:25.169Z,79.77
2019-03-22T00:43:55.127Z,80.70
2019-03-22T00:46:25.245Z,105.35
2019-03-22T00:48:55.440Z,91.97
2019-03-22T00:51:25.665Z,77.03
2019-03-22T00:53:55.848Z,85.30
2019-03-22T00:56:26.018Z,89.85
2019-03-22T00:58:55.970Z,78.15
2019-03-22T01:01:26.361Z,98.65
2019-03-22T01:03:56.430Z,80.12
2019-03-22T01:06:26.758Z,85.92
2019-03-22T01:08:57.422Z,83.78
2019-03-22T01:14:10.092Z,81.47
2019-03-22T01:16:40.217Z,77.22
2019-03-22T01:19:10.377Z,74.07
2019-03-22T01:21:40.424Z,77.42
2019-03-22T01:24:10.786Z,70.17
2019-03-22T01:26:41.174Z,66.15
2019-03-22T01:29:11.277Z,87.60
2019-03-22T01:31:41.624Z,69.62
2019-03-22T01:34:11.743Z,72.03
2019-03-22T01:36:41.849Z,75.17
2019-03-22T01:39:11.904Z,72.37
2019-03-22T01:41:42.427Z,75.17
2019-03-22T01:44:12.765Z,64.50
2019-03-22T01:46:42.865Z,68.15
2019-03-22T01:49:12.879Z,69.20
2019-03-22T01:51:43.068Z,65.35
2019-03-22T01:54:13.189Z,66.22
2019-03-22T01:56:44.106Z,64.87
2019-03-22T01:59:14.211Z,66.35
2019-03-22T02:02:51.222Z,64.72
2019-03-22T02:05:21.452Z,61.88
2019-03-22T02:07:51.826Z,61.77
2019-03-22T02:10:22.000Z,62.38
2019-03-22T02:12:52.066Z,57.88
2019-03-22T02:15:22.366Z,73.78
2019-03-22T02:17:52.505Z,53.00
2019-03-22T02:20:22.645Z,59.13
2019-03-22T02:22:52.768Z,111.40
2019-03-22T02:25:22.801Z,55.67
2019-03-22T02:28:03.467Z,53.60
2019-03-22T02:30:24.681Z,56.02
2019-03-22T02:32:54.901Z,54.15
2019-03-22T02:35:28.795Z,56.10
2019-03-22T02:37:56.818Z,61.30
2019-03-22T02:40:27.039Z,56.58
2019-03-22T02:42:57.329Z,63.65
2019-03-22T02:45:27.369Z,51.08
2019-03-22T02:47:57.612Z,54.27
2019-03-22T02:50:28.022Z,50.80
2019-03-22T02:52:58.081Z,50.90
2019-03-22T02:55:28.267Z,58.20
2019-03-22T02:57:58.527Z,57.10
2019-03-22T03:00:28.527Z,50.60
2019-03-22T03:02:58.529Z,50.67
2019-03-22T03:05:28.742Z,56.77
2019-03-22T03:07:59.314Z,54.13
2019-03-22T03:10:29.423Z,52.13
2019-03-22T03:12:59.508Z,58.73
2019-03-22T03:15:29.214Z,50.95
2019-03-22T03:17:59.365Z,54.13
2019-03-22T03:20:29.447Z,51.88
2019-03-22T03:22:59.747Z,51.63
2019-03-22T03:25:29.849Z,50.98
2019-03-22T03:28:00.197Z,59.73
2019-03-22T03:30:30.331Z,53.52
2019-03-22T03:33:00.613Z,53.52
2019-03-22T03:35:30.959Z,54.10
2019-03-22T03:38:01.502Z,54.58
2019-03-22T03:40:31.630Z,51.95
2019-03-22T03:43:01.738Z,54.77
2019-03-22T03:45:34.832Z,51.13
2019-03-22T03:48:07.267Z,51.73
2019-03-22T03:50:37.738Z,51.02
2019-03-22T03:53:07.896Z,50.80
2019-03-22T03:55:37.985Z,56.50
2019-03-22T03:58:09.221Z,51.63
2019-03-22T04:00:39.297Z,48.28
2019-03-22T04:03:10.414Z,46.42
2019-03-22T04:05:40.479Z,49.33
2019-03-22T04:08:10.686Z,47.08
2019-03-22T04:10:41.705Z,48.00
2019-03-22T04:13:11.484Z,45.00
2019-03-22T04:15:41.595Z,45.52
2019-03-22T04:18:11.760Z,47.93
2019-03-22T04:20:41.975Z,42.05
2019-03-22T04:23:12.214Z,52.80
2019-03-22T04:25:42.276Z,49.13
2019-03-22T04:28:12.538Z,43.30
2019-03-22T04:30:42.701Z,41.02
2019-03-22T04:33:12.952Z,42.90
2019-03-22T04:35:42.788Z,40.33
2019-03-22T04:38:13.001Z,41.48
2019-03-22T04:40:43.054Z,49.63
2019-03-22T04:43:13.184Z,41.13
2019-03-22T04:45:44.022Z,63.30
2019-03-22T04:48:17.807Z,52.05
2019-03-22T04:50:47.749Z,44.67
2019-03-22T04:53:21.743Z,43.40
2019-03-22T04:55:54.049Z,39.92
2019-03-22T04:58:24.201Z,40.75
2019-03-22T05:00:54.924Z,38.15
2019-03-22T05:03:25.373Z,37.33
2019-03-22T05:05:55.416Z,42.48
2019-03-22T05:08:25.542Z,33.03
2019-03-22T05:10:55.896Z,36.40
2019-03-22T05:13:26.036Z,77.53
2019-03-22T05:15:55.850Z,37.03
2019-03-22T05:18:25.955Z,36.90
2019-03-22T05:20:55.946Z,35.75
2019-03-22T05:23:26.124Z,37.80
2019-03-22T05:25:56.131Z,39.48
2019-03-22T05:28:26.022Z,42.13
2019-03-22T05:30:59.071Z,43.60
2019-03-22T05:33:29.155Z,43.87
2019-03-22T05:35:59.358Z,45.48
2019-03-22T05:38:29.449Z,50.40
2019-03-22T05:40:59.502Z,49.58
2019-03-22T05:43:29.875Z,49.15
2019-03-22T05:45:59.974Z,50.08
2019-03-22T05:48:30.283Z,47.67
2019-03-22T05:51:00.325Z,46.58
2019-03-22T05:53:30.468Z,47.93
2019-03-22T05:56:00.742Z,52.77
2019-03-22T05:58:30.809Z,48.25
2019-03-22T06:01:00.881Z,45.67
2019-03-22T06:03:31.009Z,41.80
2019-03-22T06:06:01.047Z,41.88
2019-03-22T06:08:31.324Z,41.00
2019-03-22T06:11:01.467Z,39.23
2019-03-22T06:13:31.446Z,39.45
2019-03-22T06:16:01.708Z,40.70
2019-03-22T06:18:31.942Z,39.78
2019-03-22T06:21:02.260Z,38.85
2019-03-22T06:23:32.345Z,42.70
2019-03-22T06:26:02.639Z,42.07
2019-03-22T06:28:32.617Z,79.53
2019-03-22T06:31:02.763Z,49.33
2019-03-22T06:33:33.062Z,40.10
2019-03-22T06:36:03.170Z,52.08
2019-03-22T06:38:33.592Z,46.37
2019-03-22T06:41:03.756Z,39.00
2019-03-22T06:43:33.690Z,34.18
2019-03-22T06:46:03.884Z,44.80
2019-03-22T06:48:33.997Z,36.65
2019-03-22T06:51:04.509Z,31.75
2019-03-22T06:53:34.859Z,32.63
2019-03-22T06:56:05.121Z,30.82
2019-03-22T06:58:35.163Z,30.72
2019-03-22T07:01:05.507Z,28.20
2019-03-22T07:03:35.740Z,45.90
2019-03-22T07:06:05.898Z,129.47
2019-03-22T07:08:35.771Z,31.80
2019-03-22T07:11:05.834Z,27.58
2019-03-22T07:13:36.449Z,62.67
2019-03-22T07:16:06.703Z,31.05
2019-03-22T07:18:36.809Z,34.67
2019-03-22T07:21:06.510Z,36.93
2019-03-22T07:24:56.536Z,39.83
2019-03-22T07:27:26.773Z,125.62
2019-03-22T07:29:56.970Z,26.07
2019-03-22T07:32:27.100Z,25.15
2019-03-22T07:34:57.506Z,25.27
2019-03-22T07:37:27.691Z,24.47
2019-03-22T07:39:57.913Z,25.93
2019-03-22T07:42:28.049Z,31.17
2019-03-22T07:44:58.059Z,34.67
2019-03-22T07:47:28.216Z,29.32
2019-03-22T07:49:58.488Z,43.35
2019-03-22T07:52:28.654Z,31.00
2019-03-22T07:54:58.933Z,24.57
2019-03-22T07:57:29.143Z,27.60
2019-03-22T07:59:59.120Z,28.87
2019-03-22T08:02:29.513Z,28.17
2019-03-22T08:04:59.637Z,34.78
2019-03-22T08:07:29.444Z,28.55
2019-03-22T08:09:59.732Z,28.67
2019-03-22T08:12:30.105Z,30.25
2019-03-22T08:15:00.382Z,28.52
2019-03-22T08:17:30.673Z,28.67
2019-03-22T08:20:00.810Z,34.13
2019-03-22T08:22:30.835Z,38.23
2019-03-22T08:25:00.960Z,28.20
2019-03-22T08:27:31.164Z,27.22
2019-03-22T08:30:01.315Z,27.10
2019-03-22T08:32:31.642Z,25.88
2019-03-22T08:35:01.719Z,27.52
2019-03-22T08:37:31.920Z,42.48
2019-03-22T08:40:02.045Z,35.10
2019-03-22T08:42:32.145Z,35.57
2019-03-22T08:45:02.240Z,26.52
2019-03-22T08:47:34.118Z,26.45
2019-03-22T08:50:04.145Z,27.55
2019-03-22T08:52:34.361Z,26.17
2019-03-22T08:55:04.913Z,25.10
2019-03-22T08:57:34.880Z,27.10
2019-03-22T09:00:06.918Z,30.20
2019-03-22T09:02:37.017Z,26.05
2019-03-22T09:05:08.084Z,47.23
2019-03-22T09:07:38.414Z,37.93
2019-03-22T09:10:10.607Z,27.37
2019-03-22T09:12:40.627Z,27.73
2019-03-22T09:15:12.908Z,25.00
2019-03-22T09:17:43.004Z,25.35
2019-03-22T09:20:13.209Z,26.57
2019-03-22T09:22:43.720Z,27.65
2019-03-22T09:25:13.811Z,30.37
2019-03-22T09:27:43.654Z,40.33
2019-03-22T09:30:15.148Z,24.27
2019-03-22T09:32:45.159Z,26.30
2019-03-22T09:35:15.227Z,25.25
2019-03-22T09:37:45.577Z,29.70
2019-03-22T09:40:15.849Z,25.23
2019-03-22T09:42:47.815Z,24.40
2019-03-22T09:45:17.566Z,32.90
2019-03-22T09:47:47.691Z,31.00
2019-03-22T09:50:18.171Z,26.30
2019-03-22T09:52:48.172Z,30.02
2019-03-22T09:55:18.454Z,25.75
2019-03-22T09:57:49.571Z,27.02
2019-03-22T10:00:22.467Z,27.90
2019-03-22T10:02:52.576Z,26.27
2019-03-22T10:05:22.769Z,94.52
2019-03-22T10:07:52.955Z,40.48
2019-03-22T10:10:23.681Z,40.85
2019-03-22T10:12:54.191Z,27.42
2019-03-22T10:15:24.208Z,31.73
2019-03-22T10:17:54.382Z,25.72
2019-03-22T10:20:24.478Z,30.20
2019-03-22T10:22:54.623Z,30.48
2019-03-22T10:25:24.692Z,41.97
2019-03-22T10:27:54.741Z,41.83
2019-03-22T10:30:24.848Z,32.08
2019-03-22T10:32:55.106Z,24.10
2019-03-22T10:35:26.344Z,27.90
2019-03-22T10:38:00.951Z,25.13
2019-03-22T10:40:28.428Z,29.32
2019-03-22T10:42:58.614Z,28.52
2019-03-22T10:45:28.733Z,29.23
2019-03-22T10:47:59.102Z,26.60
2019-03-22T10:50:29.382Z,30.32
2019-03-22T10:52:59.475Z,30.12
2019-03-22T10:55:30.725Z,30.93
2019-03-22T10:58:01.044Z,33.78
2019-03-22T11:00:31.303Z,39.38
2019-03-22T11:03:01.581Z,31.37
2019-03-22T11:05:31.682Z,32.08
2019-03-22T11:08:01.936Z,40.25
2019-03-22T11:10:31.904Z,38.83
2019-03-22T11:13:02.119Z,40.73
2019-03-22T11:15:32.528Z,38.83
2019-03-22T11:18:02.624Z,31.97
2019-03-22T11:20:32.807Z,34.08
2019-03-22T11:23:02.886Z,32.38
2019-03-22T11:25:32.908Z,42.23
2019-03-22T11:28:03.122Z,33.88
2019-03-22T11:30:33.378Z,36.80
2019-03-22T11:33:03.361Z,74.90
2019-03-22T11:35:33.594Z,36.63
2019-03-22T11:38:03.738Z,33.70
2019-03-22T11:40:33.852Z,49.00
2019-03-22T11:43:08.711Z,31.95
2019-03-22T11:45:35.347Z,38.70
2019-03-22T11:48:05.531Z,36.48
2019-03-22T11:50:35.772Z,40.03
2019-03-22T11:53:06.157Z,39.15
2019-03-22T11:55:36.327Z,38.23
2019-03-22T11:58:06.336Z,39.40
2019-03-22T12:00:36.385Z,39.03
2019-03-22T12:03:06.436Z,43.60
2019-03-22T12:05:40.319Z,43.00
2019-03-22T12:08:07.695Z,41.77
2019-03-22T12:10:37.858Z,46.48
2019-03-22T12:13:08.075Z,39.80
2019-03-22T12:15:38.296Z,48.70
2019-03-22T12:18:08.578Z,47.13
2019-03-22T12:23:19.172Z,53.65
2019-03-22T12:25:49.293Z,43.80
2019-03-22T12:28:19.562Z,47.45
2019-03-22T12:30:49.567Z,49.17
2019-03-22T12:33:19.731Z,51.75
2019-03-22T12:35:50.030Z,47.15
2019-03-22T12:38:20.130Z,50.88
2019-03-22T12:40:49.818Z,44.93
2019-03-22T12:43:19.892Z,40.90
2019-03-22T12:45:50.151Z,42.60
2019-03-22T12:48:20.372Z,40.55
2019-03-22T12:50:50.475Z,43.78
2019-03-22T12:53:20.447Z,44.40
2019-03-22T12:55:50.517Z,43.98
2019-03-22T12:58:20.665Z,57.85
2019-03-22T13:00:50.639Z,50.92
2019-03-22T13:03:20.888Z,56.63
2019-03-22T13:05:51.168Z,57.08
2019-03-22T13:08:21.190Z,46.98
2019-03-22T13:10:51.361Z,50.13
2019-03-22T13:13:21.468Z,57.93
2019-03-22T13:15:51.576Z,55.10
2019-03-22T13:18:21.658Z,49.00
2019-03-22T13:20:52.109Z,40.23
2019-03-22T13:23:22.029Z,42.43
2019-03-22T13:25:52.278Z,41.90
2019-03-22T13:28:22.286Z,41.60
2019-03-22T13:30:52.426Z,40.25
2019-03-22T13:33:23.218Z,41.42
2019-03-22T13:35:53.371Z,43.83
2019-03-22T13:38:23.243Z,43.90
2019-03-22T13:40:53.349Z,52.03
2019-03-22T13:43:23.604Z,51.13
2019-03-22T13:45:53.630Z,48.35
2019-03-22T13:48:23.824Z,47.73
2019-03-22T13:50:54.026Z,45.45
2019-03-22T13:53:24.216Z,49.23
2019-03-22T13:55:54.440Z,37.65
2019-03-22T13:58:24.628Z,44.18
2019-03-22T14:00:54.720Z,40.70
2019-03-22T14:03:24.821Z,41.92
2019-03-22T14:05:55.004Z,42.10
2019-03-22T14:08:26.983Z,44.48
2019-03-22T14:10:56.613Z,42.85
2019-03-22T14:13:26.746Z,44.27
2019-03-22T14:15:56.933Z,39.67
2019-03-22T14:18:27.202Z,38.40
2019-03-22T14:20:57.455Z,34.03
2019-03-22T14:23:27.029Z,43.10
2019-03-22T14:25:57.500Z,41.13
2019-03-22T14:28:27.523Z,41.10
2019-03-22T14:30:57.689Z,40.58
2019-03-22T14:33:27.777Z,49.85
2019-03-22T14:35:57.791Z,45.17
2019-03-22T14:38:28.043Z,41.33
2019-03-22T14:40:58.133Z,45.33
2019-03-22T14:43:28.185Z,45.33
2019-03-22T14:45:58.606Z,50.03
2019-03-22T14:48:28.884Z,47.13
2019-03-22T14:50:58.912Z,45.33
2019-03-22T14:53:29.176Z,48.60
2019-03-22T14:55:59.088Z,45.60
2019-03-22T14:58:29.126Z,57.03
2019-03-22T15:00:59.355Z,46.75
2019-03-22T15:03:29.544Z,47.17
2019-03-22T15:05:59.624Z,46.43
2019-03-22T15:08:29.772Z,47.35
2019-03-22T15:10:59.354Z,45.25
2019-03-22T15:13:30.694Z,46.58
2019-03-22T15:16:02.105Z,47.57
2019-03-22T15:18:33.615Z,41.33
2019-03-22T15:21:04.929Z,42.75
2019-03-22T15:23:36.453Z,46.02
2019-03-22T15:26:07.738Z,39.33
2019-03-22T15:28:39.103Z,41.98
2019-03-22T15:31:10.428Z,41.28
2019-03-22T15:33:41.877Z,43.70
2019-03-22T15:36:13.240Z,45.13
2019-03-22T15:38:44.653Z,46.35
2019-03-22T15:41:14.649Z,49.45
2019-03-22T15:43:44.882Z,54.80
2019-03-22T15:46:14.781Z,49.38
2019-03-22T15:48:44.867Z,50.83
2019-03-22T15:51:15.168Z,52.93
2019-03-22T15:53:45.126Z,48.60
2019-03-22T15:56:15.211Z,55.20
2019-03-22T15:58:45.252Z,50.55
2019-03-22T16:01:15.079Z,52.08
2019-03-22T16:03:45.046Z,53.02
2019-03-22T16:06:15.271Z,52.25
2019-03-22T16:08:45.120Z,55.45
2019-03-22T16:11:15.444Z,58.10
2019-03-22T16:13:45.690Z,56.23
2019-03-22T16:16:16.080Z,53.48
2019-03-22T16:18:46.166Z,53.77
2019-03-22T16:21:16.239Z,53.30
2019-03-22T16:23:46.173Z,48.65
2019-03-22T16:26:16.222Z,56.55
2019-03-22T16:28:46.351Z,54.33
2019-03-22T16:31:16.476Z,54.38
2019-03-22T16:33:53.986Z,56.30
2019-03-22T16:36:18.037Z,48.17
2019-03-22T16:38:47.807Z,54.70
2019-03-22T16:41:17.833Z,55.25
2019-03-22T16:43:47.911Z,52.53
2019-03-22T16:46:18.012Z,67.45
2019-03-22T16:48:48.031Z,58.95
2019-03-22T16:51:18.206Z,63.68
2019-03-22T16:53:47.992Z,60.70
2019-03-22T16:56:18.019Z,60.67
2019-03-22T16:58:47.729Z,57.43
2019-03-22T17:01:17.835Z,60.55
2019-03-22T17:03:48.113Z,56.13
2019-03-22T17:06:18.166Z,52.73
2019-03-22T17:08:48.278Z,58.35
2019-03-22T17:11:18.437Z,59.55
2019-03-22T17:13:48.637Z,53.87
2019-03-22T17:16:19.029Z,55.70
2019-03-22T17:18:49.217Z,52.48
2019-03-22T17:21:19.211Z,51.73
2019-03-22T17:23:49.377Z,55.05
2019-03-22T17:26:20.438Z,58.48
2019-03-22T17:28:50.546Z,52.03
2019-03-22T17:31:20.519Z,56.13
2019-03-22T17:33:50.576Z,57.35
2019-03-22T17:36:20.730Z,52.93
2019-03-22T17:38:50.798Z,57.67
2019-03-22T17:41:20.867Z,56.75
2019-03-22T17:43:50.945Z,58.80
2019-03-22T17:46:21.082Z,60.88
2019-03-22T17:48:51.229Z,54.03
2019-03-22T17:51:22.065Z,55.67
2019-03-22T17:53:52.328Z,51.30
2019-03-22T17:56:22.410Z,55.88
2019-03-22T17:58:52.337Z,54.88
2019-03-22T18:01:22.392Z,54.42
2019-03-22T18:03:52.495Z,53.63
2019-03-22T18:06:22.562Z,55.73
2019-03-22T18:08:52.685Z,59.55
2019-03-22T18:11:22.779Z,54.50
2019-03-22T18:13:52.796Z,56.70
2019-03-22T18:16:23.075Z,68.97
2019-03-22T18:18:53.222Z,64.85
2019-03-22T18:21:23.332Z,63.30
2019-03-22T18:23:53.566Z,58.13
2019-03-22T18:26:23.643Z,61.77
2019-03-22T18:28:55.335Z,64.03
2019-03-22T18:31:25.327Z,62.60
2019-03-22T18:33:55.834Z,60.73
2019-03-22T18:36:25.867Z,61.03
2019-03-22T18:38:55.908Z,57.55
2019-03-22T18:41:26.125Z,61.35
2019-03-22T18:43:56.373Z,65.50
2019-03-22T18:46:26.393Z,61.67
2019-03-22T18:48:56.664Z,54.50
2019-03-22T18:51:26.761Z,55.30
2019-03-22T18:53:56.785Z,62.15
2019-03-22T18:56:27.107Z,62.30
2019-03-22T18:58:57.157Z,57.88
2019-03-22T19:01:26.958Z,58.48
2019-03-22T19:03:57.177Z,61.07
2019-03-22T19:06:27.209Z,59.18
2019-03-22T19:08:57.278Z,62.17
2019-03-22T19:11:27.621Z,61.95
2019-03-22T19:13:57.484Z,65.67
2019-03-22T19:16:27.707Z,61.13
2019-03-22T19:18:57.708Z,56.37
2019-03-22T19:21:27.707Z,57.75
2019-03-22T19:23:58.007Z,61.28
2019-03-22T19:26:28.137Z,66.55
2019-03-22T19:28:58.521Z,60.73
2019-03-22T19:31:28.651Z,59.77
2019-03-22T19:33:58.735Z,57.23
2019-03-22T19:36:29.588Z,68.07
2019-03-22T19:38:59.782Z,58.42
2019-03-22T19:41:29.753Z,61.18
2019-03-22T19:43:59.899Z,61.28
2019-03-22T19:46:30.246Z,59.77
2019-03-22T19:49:00.241Z,60.53
2019-03-22T19:51:30.428Z,58.05
2019-03-22T19:54:00.382Z,59.38
2019-03-22T19:56:30.559Z,61.88
2019-03-22T19:59:00.729Z,65.55
2019-03-22T20:01:30.776Z,62.93
2019-03-22T20:04:00.822Z,68.40
2019-03-22T20:06:30.996Z,64.77
2019-03-22T20:09:01.015Z,65.67
2019-03-22T20:11:31.231Z,65.60
2019-03-22T20:14:01.412Z,58.92
2019-03-22T20:16:31.678Z,59.10
2019-03-22T20:19:01.647Z,60.88
2019-03-22T20:21:31.677Z,59.60
2019-03-22T20:24:01.716Z,58.10
2019-03-22T20:26:31.867Z,61.35
2019-03-22T20:29:01.889Z,64.37
2019-03-22T20:31:31.888Z,63.20
2019-03-22T20:34:01.940Z,64.50
2019-03-22T20:36:32.091Z,62.17
2019-03-22T20:39:02.104Z,58.73
2019-03-22T20:41:32.181Z,62.25
2019-03-22T20:44:02.263Z,75.95
2019-03-22T20:46:32.464Z,66.50
2019-03-22T20:49:05.037Z,62.10
2019-03-22T20:51:34.133Z,62.17
2019-03-22T20:54:04.198Z,61.18
2019-03-22T20:56:34.425Z,60.75
2019-03-22T20:59:04.400Z,56.83
2019-03-22T21:01:34.472Z,68.33
2019-03-22T21:04:04.639Z,58.65
2019-03-22T21:06:34.691Z,64.35
2019-03-22T21:09:05.275Z,61.60
2019-03-22T21:11:35.582Z,61.60
2019-03-22T21:14:05.749Z,62.93
2019-03-22T21:16:35.767Z,60.95
2019-03-22T21:19:05.885Z,60.78
2019-03-22T21:21:36.765Z,61.53
2019-03-22T21:24:08.745Z,56.95
2019-03-22T21:26:38.585Z,59.27
2019-03-22T21:29:08.555Z,65.75
2019-03-22T21:31:38.927Z,61.53
2019-03-22T21:34:09.106Z,62.90
2019-03-22T21:36:39.311Z,60.07
2019-03-22T21:39:09.380Z,59.20
2019-03-22T21:41:39.749Z,59.37
2019-03-22T21:44:09.662Z,62.38
2019-03-22T21:46:39.927Z,58.48
2019-03-22T21:49:10.018Z,60.95
2019-03-22T21:51:39.998Z,66.05
2019-03-22T21:54:09.999Z,57.27
2019-03-22T21:56:40.272Z,66.17
2019-03-22T21:59:11.234Z,61.70
2019-03-22T22:01:41.565Z,63.68
2019-03-22T22:04:11.610Z,61.00
2019-03-22T22:06:41.985Z,63.78
2019-03-22T22:09:12.122Z,61.65
2019-03-22T22:11:42.437Z,62.80
2019-03-22T22:14:12.624Z,63.45
2019-03-22T22:16:42.648Z,66.33
2019-03-22T22:19:12.650Z,62.43
2019-03-22T22:21:43.004Z,61.42
2019-03-22T22:24:13.058Z,66.90
2019-03-22T22:26:43.058Z,60.25
2019-03-22T22:29:13.257Z,59.13
2019-03-22T22:31:43.452Z,63.87
2019-03-22T22:34:13.683Z,69.05
2019-03-22T22:36:43.786Z,72.40
2019-03-22T22:39:13.922Z,71.60
2019-03-22T22:41:43.917Z,66.17
2019-03-22T22:44:14.324Z,61.83
2019-03-22T22:46:44.412Z,65.85
2019-03-22T22:49:14.569Z,67.42
2019-03-22T22:51:44.664Z,64.67
2019-03-22T22:54:14.712Z,67.58
2019-03-22T22:56:44.920Z,62.62
2019-03-22T22:59:15.189Z,66.37
2019-03-22T23:01:45.180Z,68.92
2019-03-22T23:04:15.627Z,70.80
2019-03-22T23:06:45.742Z,84.07
2019-03-22T23:09:16.052Z,84.80
2019-03-22T23:11:46.143Z,81.30
2019-03-22T23:14:16.238Z,77.47
2019-03-22T23:16:46.313Z,95.77
2019-03-22T23:19:16.424Z,64.85
2019-03-22T23:21:46.589Z,74.05
2019-03-22T23:24:16.478Z,68.23
2019-03-22T23:26:46.776Z,74.65
2019-03-22T23:29:17.579Z,74.67
2019-03-22T23:31:49.280Z,74.58
2019-03-22T23:34:19.217Z,72.05
2019-03-22T23:36:49.544Z,80.10
2019-03-22T23:39:19.578Z,70.25
2019-03-22T23:41:49.673Z,80.30
2019-03-22T23:44:19.715Z,72.37
2019-03-22T23:46:49.843Z,70.03
2019-03-22T23:49:19.892Z,75.67
2019-03-22T23:51:49.946Z,85.85
2019-03-22T23:54:20.712Z,79.30
2019-03-22T23:56:50.788Z,81.33
2019-03-22T23:59:21.042Z,80.42
